Time;durP1;ratioP1;P1;durP2;ratioP2;P2;SDS_P1;SDS_P2;PMS_P1;PMS_P2;Temp;Humidity;BMP_temperature;BMP_pressure;BME280_temperature;BME280_humidity;BME280_pressure;Samples;Min_cycle;Max_cycle;Signal;HPM_P1;HPM_P2
2023/09/30 00:00:15;;;;;;;12.20;7.70;;;;;;;20.27;67.01;100738.08;110673;1210;99072;-61
2023/09/30 00:02:40;;;;;;;13.40;7.60;;;;;;;20.26;66.90;100740.00;110692;1209;99375;-60
2023/09/30 00:05:07;;;;;;;18.70;7.70;;;;;;;20.25;66.91;100739.73;110569;1209;138827;-60
2023/09/30 00:07:33;;;;;;;17.30;8.30;;;;;;;20.24;66.99;100741.62;110773;1210;98929;-61
2023/09/30 00:09:59;;;;;;;13.30;7.00;;;;;;;20.23;66.82;100740.98;110624;1214;139217;-60
2023/09/30 00:12:24;;;;;;;13.10;7.30;;;;;;;20.24;66.91;100741.62;110754;1210;98997;-60
2023/09/30 00:14:49;;;;;;;12.10;7.00;;;;;;;20.24;66.90;100741.24;110510;1209;140250;-60
2023/09/30 00:17:15;;;;;;;9.10;7.40;;;;;;;20.22;66.80;100745.04;110743;1214;99035;-60
2023/09/30 00:19:40;;;;;;;14.40;7.90;;;;;;;20.20;66.81;100745.21;110702;1209;99052;-60
2023/09/30 00:22:06;;;;;;;12.70;8.30;;;;;;;20.18;66.79;100747.71;110506;1214;139572;-60
2023/09/30 00:24:31;;;;;;;13.60;7.50;;;;;;;20.17;66.78;100746.58;110697;1213;99063;-60
2023/09/30 00:26:56;;;;;;;13.30;7.60;;;;;;;20.17;66.86;100751.13;110617;1210;140294;-60
2023/09/30 00:29:22;;;;;;;13.50;8.30;;;;;;;20.17;66.90;100748.41;110803;1214;98971;-60
2023/09/30 00:31:47;;;;;;;14.50;7.80;;;;;;;20.15;66.87;100745.27;110703;1211;99013;-60
2023/09/30 00:34:13;;;;;;;13.70;7.60;;;;;;;20.14;66.98;100744.29;110590;1209;139585;-60
2023/09/30 00:36:38;;;;;;;11.20;7.10;;;;;;;20.12;66.98;100748.27;110745;1209;99111;-60
2023/09/30 00:39:04;;;;;;;15.90;7.30;;;;;;;20.08;66.91;100753.83;110576;1210;139103;-63
2023/09/30 00:41:29;;;;;;;15.80;7.30;;;;;;;20.05;67.03;100751.36;110775;1209;98955;-60
2023/09/30 00:43:54;;;;;;;11.90;7.60;;;;;;;20.03;67.01;100752.98;110630;1209;106865;-60
2023/09/30 00:46:30;;;;;;;14.30;6.90;;;;;;;20.01;67.07;100754.41;110547;1210;140736;-60
2023/09/30 00:48:58;;;;;;;15.10;7.40;;;;;;;19.98;67.09;100754.05;110816;1211;97852;-60
2023/09/30 00:51:24;;;;;;;11.00;7.40;;;;;;;19.96;67.19;100748.30;110650;1209;140200;-60
2023/09/30 00:53:51;;;;;;;16.80;7.50;;;;;;;19.92;67.22;100749.14;110623;1209;100414;-59
2023/09/30 00:56:18;;;;;;;14.60;8.50;;;;;;;19.90;67.39;100755.09;110626;1214;98977;-60
2023/09/30 00:58:46;;;;;;;11.80;7.50;;;;;;;19.87;67.57;100755.17;110578;1209;140269;-60
2023/09/30 01:01:11;;;;;;;17.50;7.50;;;;;;;19.85;67.60;100760.98;110689;1209;98940;-60
2023/09/30 01:03:37;;;;;;;12.70;6.80;;;;;;;19.80;67.76;100766.67;110577;1210;139872;-60
2023/09/30 01:06:02;;;;;;;11.40;6.90;;;;;;;19.78;67.90;100768.08;110602;1214;99489;-60
2023/09/30 01:08:28;;;;;;;12.20;7.10;;;;;;;19.75;68.01;100770.96;110660;1213;99057;-60
2023/09/30 01:10:55;;;;;;;13.10;7.40;;;;;;;19.74;68.23;100769.28;110910;1209;140645;-60
2023/09/30 01:13:20;;;;;;;11.20;7.10;;;;;;;19.72;68.31;100770.13;110653;1209;99027;-60
2023/09/30 01:15:47;;;;;;;10.30;6.40;;;;;;;19.71;68.47;100771.65;110566;1209;139343;-60
2023/09/30 01:18:12;;;;;;;13.30;7.50;;;;;;;19.70;68.46;100776.64;110781;1210;99030;-60
2023/09/30 01:20:37;;;;;;;11.70;7.10;;;;;;;19.70;68.70;100783.17;110660;1214;104452;-60
2023/09/30 01:23:03;;;;;;;16.80;7.50;;;;;;;19.71;68.86;100789.85;110533;1209;139406;-60
2023/09/30 01:25:30;;;;;;;14.50;6.40;;;;;;;19.71;69.20;100788.39;110785;1214;99035;-60
2023/09/30 01:27:55;;;;;;;8.90;6.10;;;;;;;19.70;69.29;100796.94;110589;1213;140296;-60
2023/09/30 01:30:23;;;;;;;11.30;6.70;;;;;;;19.68;69.40;100795.09;110666;1211;99100;-59
2023/09/30 01:32:48;;;;;;;9.20;6.50;;;;;;;19.66;69.57;100791.08;110601;1214;139836;-61
2023/09/30 01:35:13;;;;;;;10.40;6.30;;;;;;;19.64;69.77;100791.30;110711;1213;99091;-60
2023/09/30 01:37:39;;;;;;;9.90;6.30;;;;;;;19.61;69.80;100792.98;110718;1210;98926;-61
2023/09/30 01:40:08;;;;;;;8.20;6.20;;;;;;;19.58;70.13;100797.22;110568;1214;140101;-61
2023/09/30 01:42:33;;;;;;;8.60;6.30;;;;;;;19.54;70.34;100795.33;110642;1214;99632;-61
2023/09/30 01:44:58;;;;;;;9.70;6.10;;;;;;;19.53;70.72;100799.62;110540;1209;138984;-60
2023/09/30 01:47:23;;;;;;;11.00;7.10;;;;;;;19.50;70.95;100807.42;110694;1214;99095;-60
2023/09/30 01:49:49;;;;;;;10.50;6.60;;;;;;;19.46;71.23;100810.38;110669;1209;99065;-61
2023/09/30 01:52:14;;;;;;;12.00;6.90;;;;;;;19.45;71.47;100817.36;110612;1211;140726;-60
2023/09/30 01:54:39;;;;;;;10.50;6.70;;;;;;;19.43;71.67;100814.48;110634;1214;99024;-61
2023/09/30 01:57:05;;;;;;;13.30;6.40;;;;;;;19.39;72.02;100814.41;110504;1210;140591;-60
2023/09/30 01:59:30;;;;;;;16.10;7.20;;;;;;;19.36;72.37;100823.36;110747;1214;99045;-60
2023/09/30 02:01:56;;;;;;;12.90;6.50;;;;;;;19.31;72.76;100830.41;110644;1210;98978;-61
2023/09/30 02:04:21;;;;;;;12.90;6.20;;;;;;;19.27;73.54;100837.27;110623;1208;139377;-60
2023/09/30 02:06:46;;;;;;;13.00;7.50;;;;;;;19.22;74.14;100836.03;110605;1215;99091;-60
2023/09/30 02:09:12;;;;;;;11.10;7.30;;;;;;;19.19;74.32;100837.16;110596;1208;140272;-59
2023/09/30 02:11:38;;;;;;;14.10;8.30;;;;;;;19.17;74.71;100836.98;110682;1210;99042;-60
2023/09/30 02:14:05;;;;;;;15.20;8.00;;;;;;;19.13;75.38;100837.77;110638;1214;99501;-61
2023/09/30 02:16:31;;;;;;;13.50;7.30;;;;;;;19.10;75.89;100840.35;110465;1208;140168;-60
2023/09/30 02:18:56;;;;;;;13.50;6.70;;;;;;;19.06;75.75;100838.86;110646;1210;99387;-60
2023/09/30 02:21:22;;;;;;;13.80;7.60;;;;;;;19.03;75.77;100838.02;110589;1214;141507;-60
2023/09/30 02:23:48;;;;;;;9.90;6.90;;;;;;;19.01;75.79;100849.95;110615;1212;99052;-60
2023/09/30 02:26:17;;;;;;;14.10;8.10;;;;;;;19.00;76.66;100855.47;110771;1214;99019;-60
2023/09/30 02:28:42;;;;;;;14.90;8.70;;;;;;;18.97;77.03;100863.83;110591;1213;138951;-60
2023/09/30 02:31:08;;;;;;;16.20;8.50;;;;;;;18.95;77.68;100867.92;110668;1209;98955;-60
2023/09/30 02:33:37;;;;;;;12.80;8.60;;;;;;;18.93;77.62;100870.27;110633;1214;140270;-60
2023/09/30 02:36:05;;;;;;;10.80;7.30;;;;;;;18.92;77.69;100877.23;110605;1209;99686;-60
2023/09/30 02:38:31;;;;;;;11.80;8.20;;;;;;;18.91;77.84;100883.69;110670;1214;99003;-60
2023/09/30 02:40:56;;;;;;;14.90;9.00;;;;;;;18.88;78.73;100886.78;110501;1210;139596;-61
2023/09/30 02:43:21;;;;;;;22.40;9.30;;;;;;;18.83;79.09;100887.30;110770;1208;98929;-60
2023/09/30 02:45:47;;;;;;;14.30;8.70;;;;;;;18.82;79.20;100892.27;110520;1214;139772;-60
2023/09/30 02:48:13;;;;;;;18.10;9.80;;;;;;;18.81;79.13;100893.05;110683;1210;99095;-60
2023/09/30 02:50:44;;;;;;;13.60;9.40;;;;;;;18.81;79.46;100893.65;110706;1209;98149;-60
2023/09/30 02:53:09;;;;;;;16.10;9.70;;;;;;;18.78;79.51;100892.02;110571;1211;99017;-60
2023/09/30 02:55:34;;;;;;;13.70;9.60;;;;;;;18.77;79.64;100892.81;110628;1211;99091;-60
2023/09/30 02:58:00;;;;;;;11.70;7.90;;;;;;;18.76;79.67;100895.64;110549;1211;139949;-60
2023/09/30 03:00:26;;;;;;;12.60;8.90;;;;;;;18.74;79.88;100896.86;110661;1213;99043;-60
2023/09/30 03:02:53;;;;;;;20.90;11.70;;;;;;;18.72;80.33;100880.40;110551;1214;139943;-60
2023/09/30 03:05:20;;;;;;;16.40;10.90;;;;;;;18.70;80.52;100887.59;110650;1214;99108;-61
2023/09/30 03:07:46;;;;;;;15.70;9.70;;;;;;;18.71;80.53;100886.95;110817;1210;99049;-61
2023/09/30 03:10:12;;;;;;;24.40;11.00;;;;;;;18.72;80.37;100897.73;110576;1211;140508;-60
2023/09/30 03:12:38;;;;;;;14.50;10.00;;;;;;;18.71;80.46;100893.86;110719;1214;99052;-60
2023/09/30 03:15:04;;;;;;;15.70;9.30;;;;;;;18.69;80.61;100901.91;110500;1216;140974;-60
2023/09/30 03:17:33;;;;;;;19.60;9.70;;;;;;;18.67;80.44;100907.13;110617;1213;98954;-60
2023/09/30 03:19:58;;;;;;;17.20;9.40;;;;;;;18.65;80.34;100900.98;110625;1209;99306;-60
2023/09/30 03:22:26;;;;;;;14.60;9.20;;;;;;;18.64;80.27;100907.05;110540;1214;139412;-60
2023/09/30 03:24:54;;;;;;;21.30;10.10;;;;;;;18.58;80.42;100905.24;110615;1211;100748;-60
2023/09/30 03:27:20;;;;;;;15.10;8.40;;;;;;;18.52;80.74;100906.03;110744;1210;139931;-60
2023/09/30 03:29:45;;;;;;;17.20;9.70;;;;;;;18.46;80.94;100912.84;110704;1212;99147;-60
2023/09/30 03:32:10;;;;;;;18.00;9.30;;;;;;;18.41;81.20;100910.64;110703;1210;98977;-60
2023/09/30 03:34:44;;;;;;;15.40;8.60;;;;;;;18.33;81.59;100914.11;110556;1214;139949;-60
2023/09/30 03:37:10;;;;;;;13.40;8.90;;;;;;;18.25;81.77;100916.13;110724;1214;99021;-60
2023/09/30 03:39:35;;;;;;;13.50;8.50;;;;;;;18.20;81.93;100922.83;110612;1211;139479;-60
2023/09/30 03:42:01;;;;;;;13.00;7.80;;;;;;;18.16;81.81;100922.41;110646;1214;98927;-60
2023/09/30 03:44:26;;;;;;;13.80;7.70;;;;;;;18.11;81.84;100921.13;110757;1214;99085;-60
2023/09/30 03:46:52;;;;;;;11.80;6.90;;;;;;;18.09;82.00;100921.67;110553;1211;139135;-60
2023/09/30 03:49:19;;;;;;;14.30;7.80;;;;;;;18.06;82.21;100925.99;110690;1214;113199;-60
2023/09/30 03:51:45;;;;;;;9.70;6.30;;;;;;;18.04;82.05;100924.56;110590;1213;141361;-60
2023/09/30 03:54:11;;;;;;;15.90;7.40;;;;;;;18.02;82.14;100926.16;110640;1210;99257;-61
2023/09/30 03:56:38;;;;;;;13.10;7.00;;;;;;;18.01;82.47;100935.59;110607;1214;99040;-60
2023/09/30 03:59:04;;;;;;;18.20;7.00;;;;;;;17.99;82.52;100939.94;110446;1210;140437;-60
2023/09/30 04:01:30;;;;;;;9.40;5.80;;;;;;;17.96;82.69;100945.68;110628;1213;99028;-60
2023/09/30 04:03:56;;;;;;;15.60;5.10;;;;;;;17.94;83.06;100953.27;110502;1214;139332;-60
2023/09/30 04:06:22;;;;;;;9.60;3.90;;;;;;;17.89;83.16;100969.92;110709;1210;99412;-60
2023/09/30 04:08:47;;;;;;;10.40;2.80;;;;;;;17.82;82.95;100971.27;110697;1211;139594;-60
2023/09/30 04:11:17;;;;;;;12.80;3.30;;;;;;;17.75;83.36;100974.30;110757;1214;99520;-60
2023/09/30 04:13:43;;;;;;;9.80;3.10;;;;;;;17.67;83.13;100979.17;110582;1214;98959;-60
2023/09/30 04:16:09;;;;;;;7.50;2.40;;;;;;;17.61;83.01;100985.48;110521;1213;139923;-59
2023/09/30 04:18:34;;;;;;;6.40;2.50;;;;;;;17.56;82.88;100994.30;110744;1214;99023;-60
2023/09/30 04:20:59;;;;;;;4.80;2.30;;;;;;;17.50;83.10;100995.41;110448;1209;139405;-60
2023/09/30 04:23:25;;;;;;;5.10;2.00;;;;;;;17.42;83.28;101010.98;110697;1211;99040;-60
2023/09/30 04:25:50;;;;;;;2.50;1.70;;;;;;;17.31;83.49;101019.33;110787;1214;99032;-60
2023/09/30 04:28:20;;;;;;;6.20;2.20;;;;;;;17.17;83.90;101023.27;110556;1214;139249;-60
2023/09/30 04:30:48;;;;;;;3.20;1.50;;;;;;;17.07;84.05;101027.88;110896;1214;106774;-60
2023/09/30 04:33:13;;;;;;;5.70;2.00;;;;;;;16.99;84.39;101037.77;110682;1211;139005;-60
2023/09/30 04:35:39;;;;;;;4.10;1.70;;;;;;;16.92;84.41;101050.02;110720;1214;99044;-61
2023/09/30 04:38:04;;;;;;;2.70;1.30;;;;;;;16.84;84.82;101059.34;110734;1211;99497;-60
2023/09/30 04:40:30;;;;;;;8.10;1.70;;;;;;;16.70;86.32;101064.33;110553;1214;138996;-61
2023/09/30 04:42:58;;;;;;;4.10;1.40;;;;;;;16.46;86.26;101072.28;110537;1211;98971;-61
2023/09/30 04:45:27;;;;;;;12.40;1.90;;;;;;;16.32;86.58;101085.25;110552;1211;140548;-60
2023/09/30 04:47:58;;;;;;;8.40;1.60;;;;;;;16.16;86.67;101089.80;110639;1214;100411;-60
2023/09/30 04:50:23;;;;;;;;;;;;;;;15.99;87.52;101095.49;110702;1214;100012;-60
2023/09/30 04:52:53;;;;;;;9.30;1.50;;;;;;;15.84;87.88;101093.65;110430;1214;126571;-60
2023/09/30 04:55:19;;;;;;;4.00;1.50;;;;;;;15.74;87.95;101092.13;110756;1214;99042;-61
2023/09/30 04:57:47;;;;;;;7.50;2.10;;;;;;;15.69;88.61;101093.13;110672;1211;139473;-60
2023/09/30 05:00:17;;;;;;;11.30;1.80;;;;;;;15.64;88.15;101097.21;110633;1214;99031;-60
2023/09/30 05:02:44;;;;;;;11.50;2.10;;;;;;;15.62;88.11;101111.75;110610;1214;100209;-60
2023/09/30 05:05:10;;;;;;;4.20;1.60;;;;;;;15.53;88.67;101114.23;110537;1214;108158;-61
2023/09/30 05:07:36;;;;;;;10.80;2.00;;;;;;;15.40;88.53;101117.64;110756;1210;99378;-61
2023/09/30 05:10:05;;;;;;;10.70;2.30;;;;;;;15.35;88.37;101124.95;110495;1212;142538;-60
2023/09/30 05:12:30;;;;;;;4.90;1.40;;;;;;;15.30;88.43;101132.63;110531;1213;100067;-60
2023/09/30 05:14:55;;;;;;;7.90;2.20;;;;;;;15.23;89.19;101138.02;110499;1212;140397;-60
2023/09/30 05:17:21;;;;;;;7.50;2.20;;;;;;;15.14;90.54;101148.23;110708;1214;99474;-60
2023/09/30 05:19:47;;;;;;;10.40;2.60;;;;;;;15.03;91.15;101154.60;110605;1214;99031;-60
2023/09/30 05:22:12;;;;;;;11.20;3.50;;;;;;;14.87;91.30;101152.60;110535;1214;140256;-61
2023/09/30 05:24:37;;;;;;;5.30;2.30;;;;;;;14.75;91.19;101159.15;110703;1209;99012;-61
2023/09/30 05:27:02;;;;;;;10.70;2.40;;;;;;;14.63;91.64;101165.94;110598;1211;140273;-60
2023/09/30 05:29:29;;;;;;;11.70;3.60;;;;;;;14.48;91.34;101167.92;110735;1210;99530;-60
2023/09/30 05:31:54;;;;;;;13.00;3.60;;;;;;;14.37;91.19;101181.25;110619;1209;108076;-61
2023/09/30 05:34:19;;;;;;;13.50;3.30;;;;;;;14.22;90.95;101188.27;110366;1214;139652;-61
2023/09/30 05:36:45;;;;;;;12.40;3.50;;;;;;;14.12;90.79;101187.36;110686;1214;98909;-61
2023/09/30 05:39:10;;;;;;;18.80;3.50;;;;;;;14.05;90.71;101193.45;110458;1214;139043;-60
2023/09/30 05:41:37;;;;;;;12.90;3.10;;;;;;;13.98;90.84;101197.03;110519;1214;98942;-60
2023/09/30 05:44:03;;;;;;;10.70;3.10;;;;;;;13.93;91.11;101206.77;110494;1214;99550;-60
2023/09/30 05:46:30;;;;;;;17.00;3.50;;;;;;;13.89;91.18;101208.20;110441;1210;140426;-60
2023/09/30 05:48:56;;;;;;;11.90;4.00;;;;;;;13.88;91.14;101207.20;110554;1210;101457;-60
2023/09/30 05:51:21;;;;;;;9.50;2.90;;;;;;;13.88;91.42;101214.38;110546;1214;141699;-61
2023/09/30 05:53:48;;;;;;;9.90;3.40;;;;;;;13.87;91.59;101212.80;110520;1210;99386;-59
2023/09/30 05:56:15;;;;;;;13.20;3.50;;;;;;;13.87;91.47;101211.36;110406;1213;99184;-61
2023/09/30 05:58:43;;;;;;;31.40;6.10;;;;;;;13.88;91.57;101209.36;110213;1211;140054;-61
2023/09/30 06:01:12;;;;;;;16.70;3.30;;;;;;;13.88;91.42;101208.48;110498;1212;99061;-61
2023/09/30 06:03:39;;;;;;;9.10;3.20;;;;;;;13.89;91.36;101223.48;110432;1214;140456;-62
2023/09/30 06:06:12;;;;;;;18.40;3.10;;;;;;;13.91;91.04;101224.48;110587;1212;98900;-61
2023/09/30 06:08:38;;;;;;;10.90;3.40;;;;;;;13.91;90.92;101227.88;112842;1211;111816;-59
2023/09/30 06:11:03;;;;;;;13.60;3.40;;;;;;;13.89;90.64;101225.64;110890;1214;139263;-59
2023/09/30 06:13:31;;;;;;;13.20;3.20;;;;;;;13.87;90.51;101232.77;110612;1214;99036;-59
2023/09/30 06:15:57;;;;;;;17.50;3.40;;;;;;;13.83;90.45;101229.53;110407;1214;140559;-59
2023/09/30 06:18:22;;;;;;;20.70;3.30;;;;;;;13.80;90.08;101234.54;110541;1211;98938;-58
2023/09/30 06:20:49;;;;;;;14.00;3.00;;;;;;;13.77;90.00;101228.37;110487;1209;139200;-59
2023/09/30 06:23:14;;;;;;;21.70;3.60;;;;;;;13.75;89.67;101234.08;110535;1214;98952;-59
2023/09/30 06:25:39;;;;;;;15.10;2.90;;;;;;;13.73;89.51;101233.97;110525;1211;99358;-59
2023/09/30 06:28:05;;;;;;;14.90;2.70;;;;;;;13.72;89.37;101239.95;110517;1214;140473;-59
2023/09/30 06:30:30;;;;;;;15.00;3.70;;;;;;;13.72;89.23;101244.97;110592;1210;99072;-59
2023/09/30 06:32:57;;;;;;;13.30;3.10;;;;;;;13.71;89.06;101250.95;110561;1209;140025;-59
2023/09/30 06:35:23;;;;;;;16.10;3.20;;;;;;;13.71;88.89;101261.21;110557;1214;112893;-58
2023/09/30 06:37:48;;;;;;;11.60;3.70;;;;;;;13.72;88.72;101266.91;110589;1210;100572;-59
2023/09/30 06:40:14;;;;;;;13.10;3.20;;;;;;;13.73;88.52;101272.44;110543;1216;139303;-59
2023/09/30 06:42:39;;;;;;;18.30;4.00;;;;;;;13.74;88.23;101282.25;110551;1214;99031;-60
2023/09/30 06:45:06;;;;;;;14.40;3.80;;;;;;;13.75;88.12;101297.10;110321;1214;140746;-59
2023/09/30 06:47:36;;;;;;;15.50;4.00;;;;;;;13.76;87.88;101294.56;111181;1215;99064;-60
2023/09/30 06:50:07;;;;;;;18.80;4.20;;;;;;;13.78;87.74;101292.81;112689;1214;97236;-60
2023/09/30 06:52:33;;;;;;;;;;;;;;;13.80;87.41;101294.73;111062;1210;139866;-59
2023/09/30 06:54:58;;;;;;;21.80;3.90;;;;;;;13.80;87.36;101297.23;110583;1223;98944;-60
2023/09/30 06:57:24;;;;;;;19.40;4.90;;;;;;;13.84;87.26;101298.27;110503;1214;139146;-60
2023/09/30 06:59:50;;;;;;;19.40;4.60;;;;;;;13.89;87.13;101298.77;110493;1214;99053;-60
2023/09/30 07:02:15;;;;;;;10.20;3.60;;;;;;;13.91;86.99;101296.35;110518;1214;99037;-65
2023/09/30 07:04:40;;;;;;;22.90;5.30;;;;;;;13.95;86.78;101288.62;110545;1210;139449;-60
2023/09/30 07:07:06;;;;;;;7.90;3.30;;;;;;;13.98;86.67;101292.60;110445;1214;99088;-60
2023/09/30 07:09:31;;;;;;;14.30;3.50;;;;;;;14.00;86.55;101299.70;110485;1210;140489;-60
2023/09/30 07:11:56;;;;;;;12.20;3.90;;;;;;;14.01;86.39;101303.25;110554;1214;99063;-60
2023/09/30 07:14:22;;;;;;;21.00;4.20;;;;;;;14.04;86.25;101306.54;110579;1214;99010;-60
2023/09/30 07:16:47;;;;;;;14.60;3.90;;;;;;;14.06;86.06;101307.19;110357;1209;139413;-60
2023/09/30 07:19:12;;;;;;;13.20;4.60;;;;;;;14.08;85.96;101306.00;110536;1214;99167;-60
2023/09/30 07:21:38;;;;;;;23.10;4.40;;;;;;;14.12;85.81;101302.21;110550;1214;140005;-60
2023/09/30 07:24:04;;;;;;;17.80;4.30;;;;;;;14.17;85.63;101307.16;110491;1211;99046;-60
2023/09/30 07:26:29;;;;;;;20.60;4.10;;;;;;;14.23;85.62;101304.70;110630;1213;99012;-59
2023/09/30 07:28:56;;;;;;;20.50;4.30;;;;;;;14.30;85.49;101305.45;110530;1214;140285;-60
2023/09/30 07:31:23;;;;;;;18.50;4.00;;;;;;;14.37;85.37;101318.42;110648;1215;100021;-59
2023/09/30 07:33:48;;;;;;;15.00;3.50;;;;;;;14.46;85.32;101326.83;110521;1209;139199;-59
2023/09/30 07:36:14;;;;;;;15.50;3.80;;;;;;;14.57;85.18;101337.98;110664;1223;99121;-61
2023/09/30 07:38:40;;;;;;;23.70;4.20;;;;;;;14.65;84.97;101344.63;110758;1210;112347;-59
2023/09/30 07:41:05;;;;;;;17.40;4.90;;;;;;;14.75;84.91;101349.50;110544;1214;138914;-59
2023/09/30 07:43:31;;;;;;;13.60;3.60;;;;;;;14.81;84.52;101346.31;110666;1209;99606;-59
2023/09/30 07:45:56;;;;;;;19.70;3.70;;;;;;;14.86;84.34;101348.40;110524;1214;138993;-59
2023/09/30 07:48:21;;;;;;;18.00;4.00;;;;;;;14.94;84.35;101347.65;110619;1210;98951;-59
2023/09/30 07:50:47;;;;;;;23.70;3.50;;;;;;;15.01;84.09;101344.41;110320;1214;139481;-59
2023/09/30 07:53:12;;;;;;;17.30;3.80;;;;;;;15.07;83.92;101359.05;110606;1209;99085;-59
2023/09/30 07:55:39;;;;;;;14.50;2.90;;;;;;;15.10;83.68;101363.39;110643;1213;98991;-59
2023/09/30 07:58:04;;;;;;;17.00;4.20;;;;;;;15.11;83.38;101360.27;110492;1210;139370;-59
2023/09/30 08:00:30;;;;;;;13.20;3.70;;;;;;;15.14;83.17;101363.00;110645;1209;100202;-59
2023/09/30 08:02:55;;;;;;;16.40;3.90;;;;;;;15.20;82.92;101365.41;110539;1214;142538;-59
2023/09/30 08:05:20;;;;;;;20.80;4.10;;;;;;;15.25;82.87;101364.25;110580;1209;98959;-59
2023/09/30 08:07:46;;;;;;;21.90;3.70;;;;;;;15.32;82.73;101372.53;110625;1209;102026;-59
2023/09/30 08:10:16;;;;;;;15.40;3.80;;;;;;;15.39;82.49;101384.42;110534;1215;142601;-59
2023/09/30 08:12:42;;;;;;;12.60;3.90;;;;;;;15.38;82.04;101380.50;110879;1215;99067;-59
2023/09/30 08:15:11;;;;;;;15.30;3.50;;;;;;;15.34;81.54;101385.96;110494;1215;141597;-59
2023/09/30 08:17:36;;;;;;;19.40;4.90;;;;;;;15.29;81.10;101385.66;110580;1213;100390;-59
2023/09/30 08:20:04;;;;;;;19.20;3.20;;;;;;;15.29;80.56;101390.16;110547;1210;99039;-59
2023/09/30 08:22:30;;;;;;;13.70;3.40;;;;;;;15.29;80.47;101393.20;110451;1214;140706;-59
2023/09/30 08:24:56;;;;;;;14.70;3.90;;;;;;;15.33;80.42;101390.65;110695;1210;97507;-59
2023/09/30 08:27:21;;;;;;;20.00;3.80;;;;;;;15.39;80.13;101400.24;110468;1209;139141;-60
2023/09/30 08:29:46;;;;;;;22.70;4.20;;;;;;;15.33;79.42;101396.95;110618;1209;99300;-60
2023/09/30 08:32:12;;;;;;;10.70;3.90;;;;;;;15.29;79.40;101404.17;110689;1214;98952;-59
2023/09/30 08:34:37;;;;;;;19.50;3.70;;;;;;;15.32;79.05;101405.33;110529;1209;140184;-58
2023/09/30 08:37:02;;;;;;;12.70;4.20;;;;;;;15.37;78.91;101404.70;110646;1223;99028;-59
2023/09/30 08:39:28;;;;;;;18.30;3.10;;;;;;;15.43;78.75;101406.34;110550;1209;139800;-59
2023/09/30 08:41:55;;;;;;;13.50;3.40;;;;;;;15.54;78.46;101409.73;110598;1209;98943;-59
2023/09/30 08:44:20;;;;;;;14.00;3.60;;;;;;;15.63;77.83;101422.08;110789;1215;98966;-60
2023/09/30 08:46:47;;;;;;;15.00;2.90;;;;;;;15.58;77.03;101422.90;110603;1210;138807;-60
2023/09/30 08:49:14;;;;;;;15.20;3.60;;;;;;;15.55;77.29;101421.77;110719;1214;99048;-59
2023/09/30 08:51:39;;;;;;;17.30;3.90;;;;;;;15.58;76.93;101421.63;110586;1215;139160;-59
2023/09/30 08:54:05;;;;;;;20.80;4.30;;;;;;;15.59;76.58;101421.56;110594;1225;99047;-59
2023/09/30 08:56:34;;;;;;;13.40;3.40;;;;;;;15.62;76.53;101425.02;110590;1215;107782;-59
2023/09/30 08:59:02;;;;;;;15.40;3.80;;;;;;;15.69;76.40;101426.98;110518;1215;139186;-59
2023/09/30 09:01:29;;;;;;;19.10;3.60;;;;;;;15.72;75.93;101427.56;110740;1209;98943;-59
2023/09/30 09:03:55;;;;;;;17.40;4.00;;;;;;;15.73;75.78;101428.01;110523;1215;138953;-59
2023/09/30 09:06:22;;;;;;;14.70;3.10;;;;;;;15.78;75.80;101423.44;110783;1210;98952;-60
2023/09/30 09:08:47;;;;;;;17.70;4.50;;;;;;;15.84;75.63;101422.56;110617;1214;140055;-59
2023/09/30 09:11:14;;;;;;;12.30;3.00;;;;;;;15.89;75.24;101424.81;110722;1215;99434;-60
2023/09/30 09:13:49;;;;;;;19.60;4.10;;;;;;;16.02;74.61;101427.58;110649;1215;99026;-59
2023/09/30 09:16:15;;;;;;;12.20;3.10;;;;;;;16.13;74.57;101427.16;110582;1209;140099;-60
2023/09/30 09:18:40;;;;;;;9.90;2.90;;;;;;;16.22;73.98;101429.75;110613;1209;99045;-60
2023/09/30 09:21:13;;;;;;;17.00;4.10;;;;;;;16.23;73.60;101433.83;110594;1215;140429;-61
2023/09/30 09:23:46;;;;;;;12.80;3.00;;;;;;;16.24;73.32;101435.93;110614;1209;112840;-60
2023/09/30 09:26:13;;;;;;;16.10;3.90;;;;;;;16.25;72.91;101436.78;110620;1215;101039;-60
2023/09/30 09:28:39;;;;;;;14.60;3.40;;;;;;;16.20;72.46;101435.77;110617;1209;141254;-61
2023/09/30 09:31:26;;;;;;;12.90;3.20;;;;;;;16.21;72.39;101437.17;110509;1209;99008;-61
2023/09/30 09:33:53;;;;;;;14.00;3.10;;;;;;;16.27;71.38;101440.08;110517;1209;140703;-59
2023/09/30 09:36:19;;;;;;;11.80;3.60;;;;;;;16.30;71.44;101439.56;110735;1214;99000;-59
2023/09/30 09:38:49;;;;;;;18.00;3.40;;;;;;;16.40;70.94;101437.25;110594;1215;139554;-59
2023/09/30 09:41:15;;;;;;;17.20;4.00;;;;;;;16.53;70.74;101442.28;110671;1209;107654;-59
2023/09/30 09:43:44;;;;;;;18.20;3.20;;;;;;;16.69;70.52;101440.14;110588;1215;99050;-59
2023/09/30 09:46:10;;;;;;;10.10;2.80;;;;;;;16.81;70.34;101442.36;110493;1209;141162;-60
2023/09/30 09:48:36;;;;;;;10.70;2.80;;;;;;;16.85;69.61;101446.98;110655;1210;98995;-60
2023/09/30 09:51:02;;;;;;;13.70;3.00;;;;;;;16.91;69.31;101457.14;110603;1215;139536;-59
2023/09/30 09:53:30;;;;;;;12.80;3.00;;;;;;;16.88;68.43;101459.64;110633;1210;99019;-59
2023/09/30 09:55:59;;;;;;;10.90;3.00;;;;;;;16.71;67.46;101461.84;110588;1209;98800;-59
2023/09/30 09:58:26;;;;;;;11.60;3.30;;;;;;;16.60;67.53;101455.60;110593;1209;141202;-60
2023/09/30 10:00:52;;;;;;;12.60;2.90;;;;;;;16.62;67.86;101456.04;110595;1209;99912;-60
2023/09/30 10:03:18;;;;;;;19.20;3.70;;;;;;;16.80;67.96;101459.91;110619;1213;139748;-60
2023/09/30 10:05:44;;;;;;;7.60;2.80;;;;;;;16.92;67.26;101460.34;110642;1212;98964;-59
2023/09/30 10:08:14;;;;;;;15.30;2.70;;;;;;;16.98;66.97;101455.51;110467;1214;112999;-61
2023/09/30 10:10:40;;;;;;;11.00;3.30;;;;;;;17.05;66.96;101456.70;110555;1215;141894;-60
2023/09/30 10:13:05;;;;;;;13.40;3.00;;;;;;;17.12;66.40;101455.92;110745;1209;98945;-60
2023/09/30 10:15:35;;;;;;;8.70;2.90;;;;;;;17.18;65.99;101455.00;110559;1215;139430;-61
2023/09/30 10:18:11;;;;;;;15.60;2.70;;;;;;;17.31;65.90;101455.52;110461;1212;105134;-60
2023/09/30 10:20:44;;;;;;;16.00;3.10;;;;;;;17.40;65.14;101464.04;110684;1209;98954;-60
2023/09/30 10:23:33;;;;;;;13.60;2.90;;;;;;;17.43;65.17;101457.71;110650;1209;101080;-59
2023/09/30 10:26:07;;;;;;;12.70;3.40;;;;;;;17.50;64.76;101449.14;110611;1215;99033;-60
2023/09/30 10:28:34;;;;;;;11.20;2.80;;;;;;;17.50;64.19;101452.57;110523;1213;141210;-59
2023/09/30 10:31:13;;;;;;;11.20;2.40;;;;;;;17.48;64.05;101453.98;110678;1210;98303;-60
2023/09/30 10:34:00;;;;;;;11.80;2.50;;;;;;;17.45;63.40;101457.02;110579;1209;139489;-59
2023/09/30 10:36:31;;;;;;;8.40;2.20;;;;;;;17.41;63.21;101454.19;110686;1209;99198;-59
2023/09/30 10:38:56;;;;;;;9.80;2.50;;;;;;;17.40;63.25;101452.45;110898;1213;139569;-59
2023/09/30 10:41:40;;;;;;;6.30;2.20;;;;;;;17.43;63.18;101446.17;110669;1209;99445;-60
2023/09/30 10:44:29;;;;;;;13.60;2.50;;;;;;;17.45;62.74;101440.98;110591;1215;105860;-59
2023/09/30 10:47:24;;;;;;;8.60;2.60;;;;;;;17.55;62.52;101438.22;110533;1209;140062;-60
2023/09/30 10:49:49;;;;;;;13.50;2.70;;;;;;;17.65;62.26;101440.52;110615;1214;99032;-59
2023/09/30 10:52:24;;;;;;;14.50;2.60;;;;;;;17.74;62.30;101444.68;110548;1209;138739;-59
2023/09/30 10:54:50;;;;;;;10.30;2.20;;;;;;;17.78;61.81;101445.88;110711;1223;99039;-60
2023/09/30 10:57:29;;;;;;;7.90;2.00;;;;;;;17.71;61.18;101444.85;110602;1213;138278;-60
2023/09/30 11:00:11;;;;;;;11.00;2.40;;;;;;;17.62;60.83;101444.82;110703;1215;99003;-60
2023/09/30 11:02:49;;;;;;;12.30;2.90;;;;;;;17.63;60.88;101446.39;110728;1214;99992;-59
2023/09/30 11:05:14;;;;;;;11.20;2.60;;;;;;;17.64;60.64;101446.89;110777;1209;98949;-60